createdAt,value
2023-04-17T00:01:40.629Z,24.92
2023-04-17T00:04:07.793Z,21.77
2023-04-17T00:06:34.797Z,23.15
2023-04-17T00:09:01.632Z,25.33
2023-04-17T00:11:28.568Z,20.38
2023-04-17T00:13:55.456Z,24.38
2023-04-17T00:16:22.450Z,21.17
2023-04-17T00:18:49.386Z,23.00
2023-04-17T00:21:16.351Z,20.95
2023-04-17T00:23:43.188Z,24.60
2023-04-17T00:26:10.059Z,26.00
2023-04-17T00:28:37.087Z,24.27
2023-04-17T00:31:04.152Z,22.63
2023-04-17T00:33:32.410Z,23.95
2023-04-17T00:35:59.267Z,23.52
2023-04-17T00:38:26.244Z,23.95
2023-04-17T00:40:53.091Z,23.70
2023-04-17T00:43:20.021Z,27.83
2023-04-17T00:45:47.273Z,25.55
2023-04-17T00:48:16.308Z,22.75
2023-04-17T00:50:44.445Z,21.67
2023-04-17T00:53:12.408Z,25.98
2023-04-17T00:55:41.157Z,23.88
2023-04-17T00:58:08.604Z,24.27
2023-04-17T01:00:35.891Z,23.38
2023-04-17T01:03:03.177Z,27.40
2023-04-17T01:05:30.167Z,25.17
2023-04-17T01:08:00.155Z,27.50
2023-04-17T01:10:27.064Z,25.55
2023-04-17T01:13:03.197Z,27.67
2023-04-17T01:15:30.139Z,26.13
2023-04-17T01:17:57.159Z,26.38
2023-04-17T01:20:24.161Z,26.83
2023-04-17T01:22:52.036Z,28.05
2023-04-17T01:25:19.604Z,24.55
2023-04-17T01:27:46.592Z,26.98
2023-04-17T01:30:14.045Z,29.23
2023-04-17T01:32:41.024Z,26.92
2023-04-17T01:35:08.473Z,28.15
2023-04-17T01:37:35.321Z,29.30
2023-04-17T01:40:02.375Z,30.25
2023-04-17T01:42:29.252Z,29.88
2023-04-17T01:44:56.071Z,26.77
2023-04-17T01:47:22.945Z,26.55
2023-04-17T01:49:49.868Z,26.00
2023-04-17T01:52:16.765Z,28.33
2023-04-17T01:54:43.623Z,26.80
2023-04-17T01:57:10.541Z,26.13
2023-04-17T01:59:37.397Z,29.77
2023-04-17T02:02:04.422Z,27.60
2023-04-17T02:04:31.415Z,27.98
2023-04-17T02:06:58.420Z,30.38
2023-04-17T02:09:25.371Z,30.25
2023-04-17T02:11:52.213Z,27.67
2023-04-17T02:14:19.161Z,33.77
2023-04-17T02:16:46.037Z,33.45
2023-04-17T02:19:13.775Z,34.03
2023-04-17T02:21:40.809Z,35.78
2023-04-17T02:24:07.793Z,36.65
2023-04-17T02:26:34.672Z,38.28
2023-04-17T02:29:01.652Z,41.83
2023-04-17T02:31:28.583Z,39.80
2023-04-17T02:33:55.486Z,41.90
2023-04-17T02:36:22.357Z,46.53
2023-04-17T02:38:49.370Z,41.00
2023-04-17T02:41:16.282Z,42.78
2023-04-17T02:43:43.151Z,40.77
2023-04-17T02:46:10.043Z,42.92
2023-04-17T02:48:36.957Z,43.25
2023-04-17T02:51:03.971Z,44.20
2023-04-17T02:53:30.822Z,45.40
2023-04-17T02:55:58.405Z,43.97
2023-04-17T02:58:25.287Z,45.20
2023-04-17T03:00:52.214Z,44.58
2023-04-17T03:03:19.391Z,38.25
2023-04-17T03:05:46.435Z,43.03
2023-04-17T03:08:13.308Z,39.15
2023-04-17T03:10:40.141Z,45.93
2023-04-17T03:13:06.965Z,39.80
2023-04-17T03:15:33.875Z,37.35
2023-04-17T03:18:00.791Z,37.40
2023-04-17T03:20:27.715Z,36.80
2023-04-17T03:22:54.613Z,37.28
2023-04-17T03:25:21.559Z,35.05
2023-04-17T03:27:48.454Z,36.22
2023-04-17T03:30:15.401Z,35.60
2023-04-17T03:32:42.321Z,35.65
2023-04-17T03:35:09.383Z,35.10
2023-04-17T03:37:36.245Z,34.15
2023-04-17T03:40:03.247Z,35.67
2023-04-17T03:42:30.110Z,35.28
2023-04-17T03:44:56.961Z,35.58
2023-04-17T03:47:23.917Z,35.70
2023-04-17T03:49:50.805Z,32.65
2023-04-17T03:52:17.705Z,36.13
2023-04-17T03:54:44.577Z,35.15
2023-04-17T03:57:11.438Z,33.30
2023-04-17T03:59:38.284Z,36.92
2023-04-17T04:02:05.373Z,35.65
2023-04-17T04:04:32.530Z,38.38
2023-04-17T04:06:59.516Z,37.13
2023-04-17T04:09:26.370Z,36.28
2023-04-17T04:11:53.221Z,35.20
2023-04-17T04:14:20.170Z,35.70
2023-04-17T04:16:47.128Z,37.60
2023-04-17T04:19:14.334Z,35.30
2023-04-17T04:21:41.454Z,36.75
2023-04-17T04:24:08.427Z,36.40
2023-04-17T04:26:35.281Z,36.70
2023-04-17T04:29:02.196Z,36.72
2023-04-17T04:31:29.324Z,38.78
2023-04-17T04:33:58.120Z,42.70
2023-04-17T04:36:25.293Z,35.27
2023-04-17T04:38:52.140Z,39.57
2023-04-17T04:41:19.021Z,38.13
2023-04-17T04:43:45.868Z,43.85
2023-04-17T04:46:12.768Z,38.05
2023-04-17T04:48:42.147Z,37.40
2023-04-17T04:51:19.605Z,33.97
2023-04-17T04:53:46.584Z,37.25
2023-04-17T04:56:13.467Z,34.10
2023-04-17T04:58:40.307Z,30.88
2023-04-17T05:01:07.388Z,30.75
2023-04-17T05:03:34.501Z,35.35
2023-04-17T05:06:01.577Z,33.85
2023-04-17T05:08:28.465Z,42.35
2023-04-17T05:10:55.402Z,50.57
2023-04-17T05:13:22.264Z,34.88
2023-04-17T05:15:49.179Z,41.58
2023-04-17T05:18:16.137Z,36.40
2023-04-17T05:20:43.037Z,40.00
2023-04-17T05:23:09.906Z,41.30
2023-04-17T05:25:36.786Z,36.38
2023-04-17T05:28:03.648Z,40.75
2023-04-17T05:30:30.512Z,45.58
2023-04-17T05:32:57.438Z,41.78
2023-04-17T05:35:24.697Z,44.25
2023-04-17T05:37:51.719Z,42.45
2023-04-17T05:40:18.777Z,72.72
2023-04-17T05:42:45.760Z,57.10
2023-04-17T05:45:14.109Z,51.13
2023-04-17T05:47:41.487Z,42.42
2023-04-17T05:50:08.942Z,40.55
2023-04-17T05:52:38.042Z,39.60
2023-04-17T05:55:06.677Z,41.63
2023-04-17T05:57:33.516Z,39.45
2023-04-17T06:00:00.444Z,49.42
2023-04-17T06:02:27.706Z,63.60
2023-04-17T06:04:54.893Z,40.20
2023-04-17T06:07:21.837Z,33.58
2023-04-17T06:09:48.737Z,40.40
2023-04-17T06:12:15.577Z,31.38
2023-04-17T06:14:42.813Z,32.08
2023-04-17T06:17:09.919Z,28.90
2023-04-17T06:19:36.876Z,26.67
2023-04-17T06:22:03.715Z,25.73
2023-04-17T06:24:30.547Z,27.90
2023-04-17T06:26:57.407Z,25.75
2023-04-17T06:29:24.511Z,29.05
2023-04-17T06:31:51.423Z,24.08
2023-04-17T06:34:18.291Z,28.90
2023-04-17T06:36:45.157Z,30.88
2023-04-17T06:39:12.325Z,30.52
2023-04-17T06:41:39.419Z,30.70
2023-04-17T06:44:06.497Z,23.55
2023-04-17T06:46:33.456Z,26.55
2023-04-17T06:49:00.356Z,23.97
2023-04-17T06:51:27.225Z,26.15
2023-04-17T06:53:54.371Z,25.90
2023-04-17T06:56:21.243Z,44.78
2023-04-17T06:58:48.156Z,30.60
2023-04-17T07:01:15.272Z,24.45
2023-04-17T07:03:42.694Z,26.17
2023-04-17T07:06:10.031Z,28.58
2023-04-17T07:08:36.914Z,23.37
2023-04-17T07:11:03.782Z,27.65
2023-04-17T07:13:32.262Z,20.52
2023-04-17T07:15:59.602Z,22.25
2023-04-17T07:18:26.763Z,23.27
2023-04-17T07:20:53.687Z,19.48
2023-04-17T07:23:20.526Z,17.48
2023-04-17T07:25:47.389Z,16.27
2023-04-17T07:28:14.560Z,21.65
2023-04-17T07:30:41.782Z,17.10
2023-04-17T07:33:09.049Z,18.98
2023-04-17T07:35:36.313Z,17.58
2023-04-17T07:38:03.202Z,15.60
2023-04-17T07:40:31.406Z,18.48
2023-04-17T07:42:58.266Z,17.35
2023-04-17T07:45:25.291Z,19.08
2023-04-17T07:47:52.349Z,15.20
2023-04-17T07:50:19.384Z,17.63
2023-04-17T07:52:46.280Z,16.10
2023-04-17T07:55:13.517Z,18.30
2023-04-17T07:57:40.378Z,16.17
2023-04-17T08:00:08.151Z,18.42
2023-04-17T08:02:35.171Z,18.73
2023-04-17T08:05:03.098Z,19.00
2023-04-17T08:07:30.012Z,16.65
2023-04-17T08:09:56.887Z,18.08
2023-04-17T08:12:23.815Z,18.98
2023-04-17T08:14:50.708Z,17.25
2023-04-17T08:17:17.661Z,21.10
2023-04-17T08:19:44.552Z,19.10
2023-04-17T08:22:11.436Z,21.90
2023-04-17T08:24:38.253Z,17.90
2023-04-17T08:27:05.137Z,15.65
2023-04-17T08:29:31.964Z,16.10
2023-04-17T08:32:13.112Z,15.00
2023-04-17T08:34:41.606Z,16.77
2023-04-17T08:37:08.475Z,16.80
2023-04-17T08:39:35.415Z,15.52
2023-04-17T08:42:07.581Z,19.35
2023-04-17T08:44:34.636Z,15.60
2023-04-17T08:47:01.625Z,18.03
2023-04-17T08:49:29.040Z,15.75
2023-04-17T08:51:56.105Z,16.50
2023-04-17T08:54:23.009Z,18.50
2023-04-17T08:56:49.962Z,17.90
2023-04-17T08:59:16.831Z,18.30
2023-04-17T09:02:05.645Z,16.67
2023-04-17T09:04:40.403Z,18.70
2023-04-17T09:07:09.671Z,15.48
2023-04-17T09:09:54.174Z,17.60
2023-04-17T09:12:22.730Z,16.60
2023-04-17T09:14:49.808Z,15.75
2023-04-17T09:17:18.408Z,15.43
2023-04-17T09:20:08.281Z,14.30
2023-04-17T09:22:36.986Z,15.55
2023-04-17T09:25:04.556Z,16.60
2023-04-17T09:27:31.454Z,15.98
2023-04-17T09:30:04.764Z,16.03
2023-04-17T09:32:33.384Z,14.13
2023-04-17T09:35:02.511Z,14.70
2023-04-17T09:37:48.018Z,13.20
2023-04-17T09:40:15.317Z,13.67
2023-04-17T09:43:00.194Z,14.80
2023-04-17T09:45:29.036Z,15.93
2023-04-17T09:47:56.110Z,14.70
2023-04-17T09:50:23.480Z,15.05
2023-04-17T09:52:55.007Z,16.88
2023-04-17T09:55:24.054Z,15.15
2023-04-17T09:57:53.290Z,14.90
2023-04-17T10:00:21.824Z,13.15
2023-04-17T10:02:50.323Z,16.73
2023-04-17T10:05:18.357Z,15.68
2023-04-17T10:07:45.585Z,15.68
2023-04-17T10:10:21.545Z,14.30
2023-04-17T10:12:50.332Z,19.25
2023-04-17T10:15:18.266Z,15.38
2023-04-17T10:17:45.299Z,16.80
2023-04-17T10:20:18.105Z,15.52
2023-04-17T10:22:48.749Z,16.80
2023-04-17T10:25:15.590Z,17.58
2023-04-17T10:27:42.962Z,14.88
2023-04-17T10:30:14.090Z,14.60
2023-04-17T10:32:44.735Z,15.98
2023-04-17T10:35:17.751Z,14.55
2023-04-17T10:38:06.211Z,14.82
2023-04-17T10:40:35.546Z,15.35
2023-04-17T10:43:02.386Z,17.10
2023-04-17T10:45:52.183Z,14.07
2023-04-17T10:48:38.942Z,15.40
2023-04-17T10:51:24.346Z,17.57
2023-04-17T10:54:02.028Z,13.57
2023-04-17T10:56:40.563Z,14.43
2023-04-17T10:59:18.129Z,15.60
2023-04-17T11:01:47.809Z,14.45
2023-04-17T11:04:29.104Z,13.77
2023-04-17T11:06:56.161Z,12.43
2023-04-17T11:09:25.393Z,12.90
2023-04-17T11:11:52.383Z,16.25
2023-04-17T11:14:21.838Z,15.40
2023-04-17T11:16:51.600Z,16.75
2023-04-17T11:19:20.504Z,15.23
2023-04-17T11:21:54.992Z,16.65
2023-04-17T11:24:29.556Z,12.80
2023-04-17T11:26:58.219Z,17.02
2023-04-17T11:29:25.180Z,13.93
2023-04-17T11:31:54.412Z,13.80
2023-04-17T11:34:21.498Z,13.10
2023-04-17T11:36:59.688Z,11.13
2023-04-17T11:39:29.518Z,11.55
2023-04-17T11:41:56.388Z,11.93
2023-04-17T11:44:23.458Z,15.23
2023-04-17T11:46:51.134Z,13.60
2023-04-17T11:49:27.891Z,14.38
2023-04-17T11:51:56.634Z,12.75
2023-04-17T11:54:31.606Z,13.07
2023-04-17T11:57:02.721Z,14.70
2023-04-17T11:59:34.176Z,12.73
2023-04-17T12:02:01.816Z,15.70
2023-04-17T12:04:29.390Z,16.83
2023-04-17T12:06:59.195Z,15.38
2023-04-17T12:09:26.755Z,16.75
2023-04-17T12:11:53.646Z,12.82
2023-04-17T12:14:20.520Z,13.48
2023-04-17T12:16:47.571Z,16.40
2023-04-17T12:19:14.526Z,15.47
2023-04-17T12:21:41.373Z,15.00
2023-04-17T12:24:08.348Z,15.33
2023-04-17T12:26:35.250Z,15.02
2023-04-17T12:29:02.236Z,16.25
2023-04-17T12:31:29.242Z,14.10
2023-04-17T12:33:56.293Z,15.05
2023-04-17T12:36:23.309Z,13.88
2023-04-17T12:38:50.233Z,12.27
2023-04-17T12:41:17.129Z,13.15
2023-04-17T12:43:44.011Z,13.13
2023-04-17T12:46:10.983Z,14.07
2023-04-17T12:48:37.870Z,14.35
2023-04-17T12:51:04.786Z,14.10
2023-04-17T12:53:31.658Z,14.50
2023-04-17T12:55:58.567Z,14.15
2023-04-17T12:58:25.458Z,14.20
2023-04-17T13:00:52.756Z,11.27
2023-04-17T13:03:19.861Z,12.23
2023-04-17T13:05:48.308Z,12.60
2023-04-17T13:08:15.345Z,13.93
2023-04-17T13:10:42.566Z,10.80
2023-04-17T13:13:09.734Z,12.65
2023-04-17T13:15:36.997Z,9.80
2023-04-17T13:18:04.051Z,10.40
2023-04-17T13:20:31.147Z,10.80
2023-04-17T13:22:59.074Z,11.90
2023-04-17T13:25:26.116Z,11.60
2023-04-17T13:27:53.055Z,11.55
2023-04-17T13:30:19.890Z,11.70
2023-04-17T13:32:46.792Z,9.75
2023-04-17T13:35:13.685Z,9.67
2023-04-17T13:37:44.148Z,9.35
2023-04-17T13:40:11.198Z,8.60
2023-04-17T13:42:38.342Z,10.60
2023-04-17T13:45:05.826Z,8.73
2023-04-17T13:47:32.767Z,8.70
2023-04-17T13:49:59.681Z,8.88
2023-04-17T13:52:26.561Z,8.70
2023-04-17T13:54:53.399Z,7.78
2023-04-17T13:57:20.252Z,6.78
2023-04-17T13:59:47.128Z,7.40
2023-04-17T14:02:14.194Z,7.40
2023-04-17T14:04:41.429Z,7.93
2023-04-17T14:07:08.317Z,7.40
2023-04-17T14:09:35.184Z,7.63
2023-04-17T14:12:02.091Z,8.73
2023-04-17T14:14:29.043Z,8.20
2023-04-17T14:16:56.517Z,7.68
2023-04-17T14:19:24.026Z,7.60
2023-04-17T14:21:50.921Z,8.35
2023-04-17T14:24:17.947Z,7.65
2023-04-17T14:26:44.910Z,8.77
2023-04-17T14:29:11.950Z,7.65
2023-04-17T14:31:38.977Z,8.77
2023-04-17T14:34:05.892Z,8.20
2023-04-17T14:36:34.814Z,8.70
2023-04-17T14:39:01.815Z,8.20
2023-04-17T14:41:28.748Z,8.13
2023-04-17T14:43:56.436Z,6.30
2023-04-17T14:46:23.486Z,7.57
2023-04-17T14:48:55.419Z,8.80
2023-04-17T14:51:26.113Z,6.75
2023-04-17T14:53:53.427Z,6.88
2023-04-17T14:56:20.932Z,7.82
2023-04-17T14:58:47.834Z,6.75
2023-04-17T15:01:14.771Z,8.25
2023-04-17T15:03:43.762Z,6.60
2023-04-17T15:06:12.613Z,6.70
2023-04-17T15:08:39.555Z,6.13
2023-04-17T15:11:06.810Z,6.50
2023-04-17T15:13:33.684Z,7.68
2023-04-17T15:16:00.594Z,6.70
2023-04-17T15:18:27.454Z,6.38
2023-04-17T15:20:54.293Z,7.10
2023-04-17T15:23:21.209Z,6.40
2023-04-17T15:25:48.129Z,6.93
2023-04-17T15:28:15.037Z,6.80
2023-04-17T15:30:41.888Z,7.07
2023-04-17T15:33:10.229Z,6.50
2023-04-17T15:35:37.677Z,6.75
2023-04-17T15:38:08.120Z,7.13
2023-04-17T15:40:35.012Z,6.70
2023-04-17T15:43:02.117Z,6.32
2023-04-17T15:45:29.036Z,5.78
2023-04-17T15:47:55.919Z,7.97
2023-04-17T15:50:22.932Z,9.27
2023-04-17T15:52:49.819Z,8.40
2023-04-17T15:55:16.789Z,6.30
2023-04-17T15:57:43.675Z,5.70
2023-04-17T16:00:11.133Z,7.28
2023-04-17T16:02:38.108Z,6.50
2023-04-17T16:05:05.469Z,6.05
2023-04-17T16:07:32.957Z,7.80
2023-04-17T16:09:59.835Z,6.80
2023-04-17T16:12:26.687Z,6.75
2023-04-17T16:14:53.625Z,9.03
2023-04-17T16:17:20.504Z,6.43
2023-04-17T16:19:50.158Z,8.52
2023-04-17T16:22:18.737Z,6.70
2023-04-17T16:24:45.642Z,8.10
2023-04-17T16:27:12.546Z,10.20
2023-04-17T16:29:39.452Z,8.00
2023-04-17T16:32:06.365Z,8.77
2023-04-17T16:34:33.217Z,7.70
2023-04-17T16:37:00.060Z,6.70
2023-04-17T16:39:26.974Z,13.20
2023-04-17T16:41:53.837Z,9.95
2023-04-17T16:44:20.752Z,8.57
2023-04-17T16:47:05.591Z,7.30
2023-04-17T16:49:34.459Z,9.45
2023-04-17T16:52:01.336Z,7.82
2023-04-17T16:54:28.216Z,9.37
2023-04-17T16:56:55.080Z,8.23
2023-04-17T16:59:22.884Z,8.20
2023-04-17T17:01:49.777Z,7.63
2023-04-17T17:04:16.900Z,7.90
2023-04-17T17:06:43.773Z,6.82
2023-04-17T17:09:10.750Z,8.48
2023-04-17T17:11:37.739Z,6.23
2023-04-17T17:14:04.624Z,7.95
2023-04-17T17:16:31.554Z,6.72
2023-04-17T17:18:58.483Z,7.57
2023-04-17T17:21:25.336Z,6.60
2023-04-17T17:23:52.271Z,7.20
2023-04-17T17:26:19.199Z,7.50
2023-04-17T17:28:46.075Z,6.78
2023-04-17T17:31:12.938Z,6.60
2023-04-17T17:33:39.785Z,7.03
2023-04-17T17:36:06.746Z,8.50
2023-04-17T17:38:33.660Z,9.35
2023-04-17T17:41:00.635Z,14.55
2023-04-17T17:43:27.592Z,8.47
2023-04-17T17:45:54.568Z,7.90
2023-04-17T17:48:21.641Z,7.28
2023-04-17T17:50:48.520Z,8.30
2023-04-17T17:53:15.456Z,8.30
2023-04-17T17:55:42.295Z,7.38
2023-04-17T17:58:09.447Z,7.40
2023-04-17T18:00:36.312Z,6.50
2023-04-17T18:03:03.280Z,7.90
2023-04-17T18:05:30.242Z,8.77
2023-04-17T18:07:57.086Z,6.40
2023-04-17T18:10:23.950Z,6.37
2023-04-17T18:12:50.831Z,9.40
2023-04-17T18:15:17.876Z,7.20
2023-04-17T18:17:44.943Z,7.70
2023-04-17T18:20:12.010Z,12.00
2023-04-17T18:22:38.938Z,7.13
2023-04-17T18:25:09.299Z,10.30
2023-04-17T18:27:36.843Z,9.48
2023-04-17T18:30:08.079Z,9.07
2023-04-17T18:32:35.976Z,17.25
2023-04-17T18:35:02.893Z,17.25
2023-04-17T18:37:29.953Z,9.82
2023-04-17T18:39:56.804Z,10.43
2023-04-17T18:42:23.745Z,6.17
2023-04-17T18:44:50.577Z,9.73
2023-04-17T18:47:17.471Z,10.00
2023-04-17T18:49:44.386Z,8.13
2023-04-17T18:52:11.287Z,7.72
2023-04-17T18:54:38.112Z,6.28
2023-04-17T18:57:04.938Z,6.30
2023-04-17T18:59:31.860Z,5.97
2023-04-17T19:01:58.728Z,7.55
2023-04-17T19:04:25.607Z,6.65
2023-04-17T19:06:52.489Z,7.85
2023-04-17T19:09:19.325Z,6.00
2023-04-17T19:11:46.221Z,7.13
2023-04-17T19:14:13.498Z,8.00
2023-04-17T19:16:40.728Z,8.05
2023-04-17T19:19:07.661Z,12.30
2023-04-17T19:21:34.545Z,8.48
2023-04-17T19:24:01.442Z,10.80
2023-04-17T19:26:28.325Z,11.10
2023-04-17T19:28:55.853Z,9.32
2023-04-17T19:31:22.757Z,8.10
2023-04-17T19:33:49.644Z,7.57
2023-04-17T19:36:16.506Z,7.20
2023-04-17T19:38:43.321Z,8.60
2023-04-17T19:41:10.903Z,6.07
2023-04-17T19:43:37.777Z,6.10
2023-04-17T19:46:04.721Z,7.13
2023-04-17T19:48:31.630Z,6.90
2023-04-17T19:50:58.507Z,7.00
2023-04-17T19:53:25.378Z,8.93
2023-04-17T19:55:52.275Z,8.10
2023-04-17T19:58:19.156Z,8.13
2023-04-17T20:00:46.113Z,8.30
2023-04-17T20:03:13.143Z,8.65
2023-04-17T20:05:40.090Z,9.30
2023-04-17T20:08:07.011Z,8.00
2023-04-17T20:10:33.881Z,8.68
2023-04-17T20:13:00.798Z,8.55
2023-04-17T20:15:27.920Z,9.65
2023-04-17T20:17:54.829Z,9.20
2023-04-17T20:20:24.892Z,9.02
2023-04-17T20:22:51.762Z,10.17
2023-04-17T20:25:18.906Z,10.10
2023-04-17T20:27:45.753Z,10.48
2023-04-17T20:30:13.201Z,10.48
2023-04-17T20:32:40.083Z,9.82
2023-04-17T20:35:10.247Z,11.30
2023-04-17T20:37:37.146Z,14.85
2023-04-17T20:40:04.335Z,10.97
2023-04-17T20:42:31.211Z,10.50
2023-04-17T20:44:58.071Z,10.38
2023-04-17T20:47:25.002Z,12.90
2023-04-17T20:49:51.864Z,12.52
2023-04-17T20:52:18.755Z,14.88
2023-04-17T20:54:45.628Z,12.82
2023-04-17T20:57:12.499Z,16.50
2023-04-17T20:59:39.365Z,12.15
2023-04-17T21:02:06.409Z,9.93
2023-04-17T21:04:33.518Z,12.18
2023-04-17T21:07:00.472Z,11.85
2023-04-17T21:09:27.303Z,13.80
2023-04-17T21:11:55.533Z,12.82
2023-04-17T21:14:22.387Z,14.75
2023-04-17T21:16:49.240Z,11.68
2023-04-17T21:19:16.105Z,11.32
2023-04-17T21:21:42.985Z,11.75
2023-04-17T21:24:09.880Z,12.60
2023-04-17T21:26:36.733Z,11.45
2023-04-17T21:29:03.591Z,13.10
2023-04-17T21:31:30.689Z,15.43
2023-04-17T21:33:57.596Z,14.05
2023-04-17T21:36:24.504Z,13.57
2023-04-17T21:38:51.309Z,12.80
2023-04-17T21:41:18.169Z,13.00
2023-04-17T21:43:45.036Z,14.35
2023-04-17T21:46:12.255Z,12.47
2023-04-17T21:48:39.936Z,12.07
2023-04-17T21:51:06.970Z,13.10
2023-04-17T21:53:35.852Z,14.10
2023-04-17T21:56:04.000Z,12.30
2023-04-17T21:58:32.568Z,12.80
2023-04-17T22:00:59.446Z,12.13
2023-04-17T22:03:26.526Z,11.50
2023-04-17T22:05:53.449Z,11.23
2023-04-17T22:08:20.354Z,14.88
2023-04-17T22:10:47.271Z,16.70
2023-04-17T22:13:14.162Z,14.40
2023-04-17T22:15:40.988Z,16.40
2023-04-17T22:18:07.922Z,13.50
2023-04-17T22:20:34.794Z,12.70
2023-04-17T22:23:01.708Z,13.07
2023-04-17T22:25:28.540Z,13.07
2023-04-17T22:27:55.438Z,13.68
2023-04-17T22:30:22.449Z,15.85
2023-04-17T22:32:49.308Z,14.83
2023-04-17T22:35:16.344Z,14.55
2023-04-17T22:37:43.194Z,15.80
2023-04-17T22:40:10.642Z,15.68
2023-04-17T22:42:37.546Z,14.48
2023-04-17T22:45:04.950Z,14.77
2023-04-17T22:47:31.847Z,16.27
2023-04-17T22:49:58.713Z,15.32
2023-04-17T22:52:25.639Z,15.40
2023-04-17T22:54:52.467Z,15.45
2023-04-17T22:57:19.331Z,15.80
2023-04-17T22:59:46.318Z,16.10
2023-04-17T23:02:13.294Z,14.82
2023-04-17T23:04:40.283Z,15.10
2023-04-17T23:07:07.174Z,16.65
2023-04-17T23:09:34.063Z,15.23
2023-04-17T23:12:01.007Z,15.60
2023-04-17T23:14:27.958Z,15.25
2023-04-17T23:16:54.812Z,16.95
2023-04-17T23:19:21.639Z,16.55
2023-04-17T23:21:48.527Z,14.20
2023-04-17T23:24:15.509Z,15.40
2023-04-17T23:26:42.430Z,15.30
2023-04-17T23:29:09.334Z,17.20
2023-04-17T23:31:39.047Z,15.80
2023-04-17T23:34:05.998Z,17.08
2023-04-17T23:36:32.856Z,16.30
2023-04-17T23:38:59.683Z,15.25
2023-04-17T23:41:26.508Z,15.30
2023-04-17T23:43:53.493Z,14.73
2023-04-17T23:46:20.375Z,15.70
2023-04-17T23:48:47.317Z,14.40
2023-04-17T23:51:14.213Z,14.32
2023-04-17T23:53:41.132Z,14.60
2023-04-17T23:56:08.084Z,14.00
2023-04-17T23:58:34.921Z,14.10
